sensor_id;sensor_type;location;lat;lon;timestamp;P1;durP1;ratioP1;P2;durP2;ratioP2
37459;SDS011;23318;50.966;5.284;2022-12-18T00:00:27;102.45;;;40.83;;
37459;SDS011;23318;50.966;5.284;2022-12-18T00:02:53;91.55;;;37.97;;
37459;SDS011;23318;50.966;5.284;2022-12-18T00:05:18;87.10;;;33.75;;
37459;SDS011;23318;50.966;5.284;2022-12-18T00:07:44;82.57;;;33.35;;
37459;SDS011;23318;50.966;5.284;2022-12-18T00:10:09;88.82;;;33.67;;
37459;SDS011;23318;50.966;5.284;2022-12-18T00:12:35;88.03;;;34.08;;
37459;SDS011;23318;50.966;5.284;2022-12-18T00:15:01;90.28;;;34.15;;
37459;SDS011;23318;50.966;5.284;2022-12-18T00:17:26;84.97;;;35.17;;
37459;SDS011;23318;50.966;5.284;2022-12-18T00:19:52;82.97;;;34.42;;
37459;SDS011;23318;50.966;5.284;2022-12-18T00:22:18;87.28;;;33.65;;
37459;SDS011;23318;50.966;5.284;2022-12-18T00:24:43;84.88;;;33.03;;
37459;SDS011;23318;50.966;5.284;2022-12-18T00:27:09;83.82;;;32.33;;
37459;SDS011;23318;50.966;5.284;2022-12-18T00:29:35;83.10;;;33.80;;
37459;SDS011;23318;50.966;5.284;2022-12-18T00:32:00;81.10;;;31.42;;
37459;SDS011;23318;50.966;5.284;2022-12-18T00:34:26;83.35;;;32.67;;
37459;SDS011;23318;50.966;5.284;2022-12-18T00:36:51;83.60;;;34.33;;
37459;SDS011;23318;50.966;5.284;2022-12-18T00:39:17;92.25;;;35.35;;
37459;SDS011;23318;50.966;5.284;2022-12-18T00:41:43;84.93;;;34.13;;
37459;SDS011;23318;50.966;5.284;2022-12-18T00:44:27;89.95;;;33.47;;
37459;SDS011;23318;50.966;5.284;2022-12-18T00:46:52;73.88;;;30.77;;
37459;SDS011;23318;50.966;5.284;2022-12-18T00:49:19;76.57;;;31.00;;
37459;SDS011;23318;50.966;5.284;2022-12-18T00:51:45;83.03;;;31.17;;
37459;SDS011;23318;50.966;5.284;2022-12-18T00:54:11;82.63;;;31.85;;
37459;SDS011;23318;50.966;5.284;2022-12-18T00:56:37;72.30;;;30.40;;
37459;SDS011;23318;50.966;5.284;2022-12-18T00:59:04;70.88;;;30.80;;
37459;SDS011;23318;50.966;5.284;2022-12-18T01:01:30;80.65;;;32.30;;
37459;SDS011;23318;50.966;5.284;2022-12-18T01:03:55;79.28;;;31.50;;
37459;SDS011;23318;50.966;5.284;2022-12-18T01:06:21;77.28;;;31.60;;
37459;SDS011;23318;50.966;5.284;2022-12-18T01:08:47;86.28;;;31.40;;
37459;SDS011;23318;50.966;5.284;2022-12-18T01:11:17;76.85;;;31.92;;
37459;SDS011;23318;50.966;5.284;2022-12-18T01:13:43;80.63;;;31.45;;
37459;SDS011;23318;50.966;5.284;2022-12-18T01:16:13;72.80;;;30.20;;
37459;SDS011;23318;50.966;5.284;2022-12-18T01:18:40;79.47;;;30.85;;
37459;SDS011;23318;50.966;5.284;2022-12-18T01:21:09;77.20;;;31.33;;
37459;SDS011;23318;50.966;5.284;2022-12-18T01:23:37;80.55;;;30.70;;
37459;SDS011;23318;50.966;5.284;2022-12-18T01:26:10;74.15;;;31.38;;
37459;SDS011;23318;50.966;5.284;2022-12-18T01:28:38;83.93;;;30.30;;
37459;SDS011;23318;50.966;5.284;2022-12-18T01:33:37;75.35;;;30.30;;
37459;SDS011;23318;50.966;5.284;2022-12-18T01:36:02;74.07;;;29.92;;
37459;SDS011;23318;50.966;5.284;2022-12-18T01:38:28;72.35;;;29.75;;
37459;SDS011;23318;50.966;5.284;2022-12-18T01:41:00;77.30;;;32.25;;
37459;SDS011;23318;50.966;5.284;2022-12-18T01:43:43;78.53;;;30.45;;
37459;SDS011;23318;50.966;5.284;2022-12-18T01:46:17;81.50;;;31.48;;
37459;SDS011;23318;50.966;5.284;2022-12-18T01:48:44;83.38;;;33.30;;
37459;SDS011;23318;50.966;5.284;2022-12-18T01:51:13;76.18;;;30.73;;
37459;SDS011;23318;50.966;5.284;2022-12-18T01:53:40;73.30;;;31.00;;
37459;SDS011;23318;50.966;5.284;2022-12-18T01:56:07;74.05;;;31.08;;
37459;SDS011;23318;50.966;5.284;2022-12-18T01:58:39;77.80;;;31.10;;
37459;SDS011;23318;50.966;5.284;2022-12-18T02:01:22;71.95;;;28.40;;
37459;SDS011;23318;50.966;5.284;2022-12-18T02:03:49;75.97;;;30.35;;
37459;SDS011;23318;50.966;5.284;2022-12-18T02:06:19;77.97;;;30.52;;
37459;SDS011;23318;50.966;5.284;2022-12-18T02:09:07;72.10;;;30.30;;
37459;SDS011;23318;50.966;5.284;2022-12-18T02:14:44;68.00;;;27.40;;
37459;SDS011;23318;50.966;5.284;2022-12-18T02:17:24;64.00;;;27.48;;
37459;SDS011;23318;50.966;5.284;2022-12-18T02:20:20;72.18;;;29.45;;
37459;SDS011;23318;50.966;5.284;2022-12-18T02:28:06;68.60;;;28.08;;
37459;SDS011;23318;50.966;5.284;2022-12-18T02:30:36;66.35;;;26.73;;
37459;SDS011;23318;50.966;5.284;2022-12-18T02:33:06;71.40;;;29.27;;
37459;SDS011;23318;50.966;5.284;2022-12-18T02:35:33;64.82;;;28.98;;
37459;SDS011;23318;50.966;5.284;2022-12-18T02:38:00;71.70;;;29.63;;
37459;SDS011;23318;50.966;5.284;2022-12-18T02:40:28;72.72;;;29.00;;
37459;SDS011;23318;50.966;5.284;2022-12-18T02:42:54;71.18;;;30.40;;
37459;SDS011;23318;50.966;5.284;2022-12-18T02:45:20;65.55;;;27.95;;
37459;SDS011;23318;50.966;5.284;2022-12-18T02:47:47;61.92;;;27.38;;
37459;SDS011;23318;50.966;5.284;2022-12-18T03:01:21;62.88;;;25.90;;
37459;SDS011;23318;50.966;5.284;2022-12-18T03:03:57;62.85;;;26.23;;
37459;SDS011;23318;50.966;5.284;2022-12-18T03:06:28;65.97;;;25.98;;
37459;SDS011;23318;50.966;5.284;2022-12-18T03:08:59;58.25;;;24.50;;
37459;SDS011;23318;50.966;5.284;2022-12-18T03:11:34;60.80;;;25.33;;
37459;SDS011;23318;50.966;5.284;2022-12-18T03:14:37;70.68;;;25.73;;
37459;SDS011;23318;50.966;5.284;2022-12-18T03:17:05;63.60;;;26.05;;
37459;SDS011;23318;50.966;5.284;2022-12-18T03:19:35;60.17;;;25.63;;
37459;SDS011;23318;50.966;5.284;2022-12-18T03:22:04;63.33;;;25.70;;
37459;SDS011;23318;50.966;5.284;2022-12-18T03:24:32;68.65;;;27.80;;
37459;SDS011;23318;50.966;5.284;2022-12-18T03:27:02;63.13;;;26.30;;
37459;SDS011;23318;50.966;5.284;2022-12-18T03:29:38;65.70;;;26.05;;
37459;SDS011;23318;50.966;5.284;2022-12-18T03:32:15;64.00;;;24.80;;
37459;SDS011;23318;50.966;5.284;2022-12-18T03:34:46;54.83;;;23.42;;
37459;SDS011;23318;50.966;5.284;2022-12-18T03:37:15;62.90;;;23.45;;
37459;SDS011;23318;50.966;5.284;2022-12-18T03:39:41;59.58;;;24.65;;
37459;SDS011;23318;50.966;5.284;2022-12-18T03:42:08;61.20;;;26.05;;
37459;SDS011;23318;50.966;5.284;2022-12-18T03:44:45;60.05;;;24.20;;
37459;SDS011;23318;50.966;5.284;2022-12-18T03:52:42;57.42;;;24.58;;
37459;SDS011;23318;50.966;5.284;2022-12-18T03:55:17;63.05;;;25.45;;
37459;SDS011;23318;50.966;5.284;2022-12-18T03:57:45;59.42;;;21.55;;
37459;SDS011;23318;50.966;5.284;2022-12-18T04:00:13;52.40;;;22.13;;
37459;SDS011;23318;50.966;5.284;2022-12-18T04:02:43;56.53;;;23.15;;
37459;SDS011;23318;50.966;5.284;2022-12-18T04:05:15;54.67;;;24.42;;
37459;SDS011;23318;50.966;5.284;2022-12-18T04:07:43;58.08;;;22.58;;
37459;SDS011;23318;50.966;5.284;2022-12-18T04:10:11;54.83;;;22.45;;
37459;SDS011;23318;50.966;5.284;2022-12-18T04:12:38;55.13;;;22.15;;
37459;SDS011;23318;50.966;5.284;2022-12-18T04:15:05;50.65;;;21.48;;
37459;SDS011;23318;50.966;5.284;2022-12-18T04:17:32;49.58;;;21.60;;
37459;SDS011;23318;50.966;5.284;2022-12-18T04:19:57;49.97;;;21.48;;
37459;SDS011;23318;50.966;5.284;2022-12-18T04:22:23;44.83;;;19.17;;
37459;SDS011;23318;50.966;5.284;2022-12-18T04:24:48;51.00;;;21.17;;
37459;SDS011;23318;50.966;5.284;2022-12-18T04:27:14;47.33;;;20.77;;
37459;SDS011;23318;50.966;5.284;2022-12-18T04:29:40;49.08;;;22.25;;
37459;SDS011;23318;50.966;5.284;2022-12-18T04:32:05;42.47;;;20.38;;
37459;SDS011;23318;50.966;5.284;2022-12-18T04:34:31;50.53;;;21.08;;
37459;SDS011;23318;50.966;5.284;2022-12-18T04:36:57;50.45;;;21.27;;
37459;SDS011;23318;50.966;5.284;2022-12-18T04:39:23;52.50;;;22.65;;
37459;SDS011;23318;50.966;5.284;2022-12-18T04:41:49;50.38;;;21.95;;
37459;SDS011;23318;50.966;5.284;2022-12-18T04:44:15;48.42;;;20.38;;
37459;SDS011;23318;50.966;5.284;2022-12-18T04:46:40;46.95;;;20.27;;
37459;SDS011;23318;50.966;5.284;2022-12-18T04:49:06;45.78;;;19.70;;
37459;SDS011;23318;50.966;5.284;2022-12-18T04:51:32;48.42;;;20.92;;
37459;SDS011;23318;50.966;5.284;2022-12-18T04:53:58;54.17;;;21.27;;
37459;SDS011;23318;50.966;5.284;2022-12-18T04:56:24;52.35;;;20.58;;
37459;SDS011;23318;50.966;5.284;2022-12-18T04:58:50;51.67;;;21.02;;
37459;SDS011;23318;50.966;5.284;2022-12-18T05:01:17;44.70;;;20.95;;
37459;SDS011;23318;50.966;5.284;2022-12-18T05:03:43;52.25;;;21.98;;
37459;SDS011;23318;50.966;5.284;2022-12-18T05:06:09;48.30;;;20.90;;
37459;SDS011;23318;50.966;5.284;2022-12-18T05:08:34;53.60;;;21.50;;
37459;SDS011;23318;50.966;5.284;2022-12-18T05:11:07;45.75;;;20.48;;
37459;SDS011;23318;50.966;5.284;2022-12-18T05:13:35;52.35;;;20.88;;
37459;SDS011;23318;50.966;5.284;2022-12-18T05:16:02;46.05;;;20.08;;
37459;SDS011;23318;50.966;5.284;2022-12-18T05:18:29;43.22;;;18.83;;
37459;SDS011;23318;50.966;5.284;2022-12-18T05:20:55;46.35;;;21.02;;
37459;SDS011;23318;50.966;5.284;2022-12-18T05:23:21;47.75;;;21.17;;
37459;SDS011;23318;50.966;5.284;2022-12-18T05:25:58;45.08;;;20.40;;
37459;SDS011;23318;50.966;5.284;2022-12-18T05:28:25;47.60;;;19.40;;
37459;SDS011;23318;50.966;5.284;2022-12-18T05:30:53;48.10;;;20.85;;
37459;SDS011;23318;50.966;5.284;2022-12-18T05:33:21;47.65;;;20.48;;
37459;SDS011;23318;50.966;5.284;2022-12-18T05:35:51;49.80;;;21.05;;
37459;SDS011;23318;50.966;5.284;2022-12-18T05:38:25;47.67;;;20.48;;
37459;SDS011;23318;50.966;5.284;2022-12-18T05:40:52;47.10;;;21.23;;
37459;SDS011;23318;50.966;5.284;2022-12-18T05:43:18;49.70;;;20.73;;
37459;SDS011;23318;50.966;5.284;2022-12-18T05:45:45;42.95;;;19.17;;
37459;SDS011;23318;50.966;5.284;2022-12-18T05:48:11;45.80;;;19.85;;
37459;SDS011;23318;50.966;5.284;2022-12-18T05:50:37;51.95;;;21.05;;
37459;SDS011;23318;50.966;5.284;2022-12-18T05:53:04;45.22;;;20.10;;
37459;SDS011;23318;50.966;5.284;2022-12-18T05:55:34;42.25;;;20.05;;
37459;SDS011;23318;50.966;5.284;2022-12-18T05:58:00;47.88;;;20.05;;
37459;SDS011;23318;50.966;5.284;2022-12-18T06:00:27;47.85;;;20.40;;
37459;SDS011;23318;50.966;5.284;2022-12-18T06:02:53;39.97;;;18.52;;
37459;SDS011;23318;50.966;5.284;2022-12-18T06:05:18;46.38;;;19.00;;
37459;SDS011;23318;50.966;5.284;2022-12-18T06:07:44;51.78;;;21.98;;
37459;SDS011;23318;50.966;5.284;2022-12-18T06:10:10;49.45;;;20.95;;
37459;SDS011;23318;50.966;5.284;2022-12-18T06:12:36;51.90;;;19.67;;
37459;SDS011;23318;50.966;5.284;2022-12-18T06:15:02;40.03;;;17.20;;
37459;SDS011;23318;50.966;5.284;2022-12-18T06:17:31;37.92;;;17.10;;
37459;SDS011;23318;50.966;5.284;2022-12-18T06:19:58;36.80;;;18.00;;
37459;SDS011;23318;50.966;5.284;2022-12-18T06:22:24;40.90;;;17.85;;
37459;SDS011;23318;50.966;5.284;2022-12-18T06:24:50;41.50;;;17.00;;
37459;SDS011;23318;50.966;5.284;2022-12-18T06:27:16;50.05;;;22.45;;
37459;SDS011;23318;50.966;5.284;2022-12-18T06:29:41;51.30;;;20.25;;
37459;SDS011;23318;50.966;5.284;2022-12-18T06:32:07;46.53;;;18.02;;
37459;SDS011;23318;50.966;5.284;2022-12-18T06:34:33;46.75;;;18.33;;
37459;SDS011;23318;50.966;5.284;2022-12-18T06:36:59;42.15;;;18.92;;
37459;SDS011;23318;50.966;5.284;2022-12-18T06:39:27;46.75;;;19.45;;
37459;SDS011;23318;50.966;5.284;2022-12-18T06:41:53;40.58;;;18.17;;
37459;SDS011;23318;50.966;5.284;2022-12-18T06:44:18;49.67;;;18.98;;
37459;SDS011;23318;50.966;5.284;2022-12-18T06:46:44;65.45;;;23.67;;
37459;SDS011;23318;50.966;5.284;2022-12-18T06:49:10;131.48;;;44.97;;
37459;SDS011;23318;50.966;5.284;2022-12-18T06:51:36;66.78;;;24.92;;
37459;SDS011;23318;50.966;5.284;2022-12-18T06:54:02;43.38;;;18.33;;
37459;SDS011;23318;50.966;5.284;2022-12-18T06:56:28;44.83;;;19.25;;
37459;SDS011;23318;50.966;5.284;2022-12-18T06:58:53;67.22;;;25.27;;
37459;SDS011;23318;50.966;5.284;2022-12-18T07:01:20;59.60;;;23.75;;
37459;SDS011;23318;50.966;5.284;2022-12-18T07:03:46;52.90;;;23.52;;
37459;SDS011;23318;50.966;5.284;2022-12-18T07:06:17;76.45;;;28.77;;
37459;SDS011;23318;50.966;5.284;2022-12-18T07:08:44;59.17;;;26.08;;
37459;SDS011;23318;50.966;5.284;2022-12-18T07:11:11;69.13;;;26.77;;
37459;SDS011;23318;50.966;5.284;2022-12-18T07:13:37;72.53;;;26.23;;
37459;SDS011;23318;50.966;5.284;2022-12-18T07:16:06;63.60;;;25.63;;
37459;SDS011;23318;50.966;5.284;2022-12-18T07:18:43;55.15;;;22.08;;
37459;SDS011;23318;50.966;5.284;2022-12-18T07:21:10;45.28;;;19.33;;
37459;SDS011;23318;50.966;5.284;2022-12-18T07:23:37;47.17;;;18.02;;
37459;SDS011;23318;50.966;5.284;2022-12-18T07:26:04;39.38;;;17.80;;
37459;SDS011;23318;50.966;5.284;2022-12-18T07:28:35;38.50;;;18.48;;
37459;SDS011;23318;50.966;5.284;2022-12-18T07:31:05;49.55;;;19.45;;
37459;SDS011;23318;50.966;5.284;2022-12-18T07:33:32;47.85;;;19.05;;
37459;SDS011;23318;50.966;5.284;2022-12-18T07:35:59;43.33;;;18.08;;
37459;SDS011;23318;50.966;5.284;2022-12-18T07:38:25;44.00;;;18.52;;
37459;SDS011;23318;50.966;5.284;2022-12-18T07:40:51;44.03;;;19.33;;
37459;SDS011;23318;50.966;5.284;2022-12-18T07:43:16;40.10;;;17.05;;
37459;SDS011;23318;50.966;5.284;2022-12-18T07:45:42;40.13;;;17.45;;
37459;SDS011;23318;50.966;5.284;2022-12-18T07:48:08;44.17;;;18.67;;
37459;SDS011;23318;50.966;5.284;2022-12-18T07:50:34;49.97;;;19.40;;
37459;SDS011;23318;50.966;5.284;2022-12-18T07:52:59;47.05;;;18.13;;
37459;SDS011;23318;50.966;5.284;2022-12-18T07:55:28;40.05;;;18.05;;
37459;SDS011;23318;50.966;5.284;2022-12-18T07:57:55;45.47;;;18.65;;
37459;SDS011;23318;50.966;5.284;2022-12-18T08:00:21;40.33;;;15.93;;
37459;SDS011;23318;50.966;5.284;2022-12-18T08:02:47;39.80;;;17.02;;
37459;SDS011;23318;50.966;5.284;2022-12-18T08:05:12;36.30;;;17.48;;
37459;SDS011;23318;50.966;5.284;2022-12-18T08:07:38;37.90;;;18.45;;
37459;SDS011;23318;50.966;5.284;2022-12-18T08:10:04;38.25;;;16.10;;
37459;SDS011;23318;50.966;5.284;2022-12-18T08:12:31;40.45;;;16.98;;
37459;SDS011;23318;50.966;5.284;2022-12-18T08:14:56;43.25;;;18.13;;
37459;SDS011;23318;50.966;5.284;2022-12-18T08:17:22;37.90;;;17.95;;
37459;SDS011;23318;50.966;5.284;2022-12-18T08:19:48;35.63;;;16.40;;
37459;SDS011;23318;50.966;5.284;2022-12-18T08:22:13;40.50;;;17.45;;
37459;SDS011;23318;50.966;5.284;2022-12-18T08:24:39;381.50;;;158.35;;
37459;SDS011;23318;50.966;5.284;2022-12-18T08:27:04;307.63;;;125.80;;
37459;SDS011;23318;50.966;5.284;2022-12-18T08:29:30;140.93;;;67.28;;
37459;SDS011;23318;50.966;5.284;2022-12-18T08:31:56;39.05;;;18.52;;
37459;SDS011;23318;50.966;5.284;2022-12-18T08:34:22;45.42;;;18.85;;
37459;SDS011;23318;50.966;5.284;2022-12-18T08:36:48;150.65;;;80.70;;
37459;SDS011;23318;50.966;5.284;2022-12-18T08:39:14;105.53;;;55.88;;
37459;SDS011;23318;50.966;5.284;2022-12-18T08:41:40;60.47;;;29.38;;
37459;SDS011;23318;50.966;5.284;2022-12-18T08:44:07;43.28;;;20.90;;
37459;SDS011;23318;50.966;5.284;2022-12-18T08:46:51;40.55;;;20.23;;
37459;SDS011;23318;50.966;5.284;2022-12-18T08:49:17;37.47;;;18.70;;
37459;SDS011;23318;50.966;5.284;2022-12-18T08:51:43;41.97;;;19.95;;
37459;SDS011;23318;50.966;5.284;2022-12-18T08:54:10;43.85;;;18.77;;
37459;SDS011;23318;50.966;5.284;2022-12-18T08:56:37;45.65;;;22.70;;
37459;SDS011;23318;50.966;5.284;2022-12-18T08:59:03;38.28;;;18.98;;
37459;SDS011;23318;50.966;5.284;2022-12-18T09:01:29;84.75;;;44.65;;
37459;SDS011;23318;50.966;5.284;2022-12-18T09:03:55;47.97;;;21.98;;
37459;SDS011;23318;50.966;5.284;2022-12-18T09:06:21;55.75;;;27.95;;
37459;SDS011;23318;50.966;5.284;2022-12-18T09:08:47;65.57;;;34.47;;
37459;SDS011;23318;50.966;5.284;2022-12-18T09:11:23;43.65;;;20.00;;
37459;SDS011;23318;50.966;5.284;2022-12-18T09:13:50;43.55;;;18.58;;
37459;SDS011;23318;50.966;5.284;2022-12-18T09:16:17;37.95;;;18.38;;
37459;SDS011;23318;50.966;5.284;2022-12-18T09:18:43;39.47;;;19.33;;
37459;SDS011;23318;50.966;5.284;2022-12-18T09:21:09;43.55;;;19.30;;
37459;SDS011;23318;50.966;5.284;2022-12-18T09:23:36;42.15;;;21.48;;
37459;SDS011;23318;50.966;5.284;2022-12-18T09:26:02;45.45;;;21.35;;
37459;SDS011;23318;50.966;5.284;2022-12-18T09:28:28;37.42;;;18.40;;
37459;SDS011;23318;50.966;5.284;2022-12-18T09:30:53;35.53;;;18.40;;
37459;SDS011;23318;50.966;5.284;2022-12-18T09:33:19;40.33;;;18.45;;
37459;SDS011;23318;50.966;5.284;2022-12-18T09:35:45;38.28;;;19.42;;
37459;SDS011;23318;50.966;5.284;2022-12-18T09:38:12;41.35;;;19.23;;
37459;SDS011;23318;50.966;5.284;2022-12-18T09:40:43;41.28;;;18.67;;
37459;SDS011;23318;50.966;5.284;2022-12-18T09:43:24;39.15;;;19.27;;
37459;SDS011;23318;50.966;5.284;2022-12-18T09:45:57;41.47;;;18.67;;
37459;SDS011;23318;50.966;5.284;2022-12-18T09:48:28;37.80;;;18.60;;
37459;SDS011;23318;50.966;5.284;2022-12-18T09:51:19;39.63;;;19.27;;
37459;SDS011;23318;50.966;5.284;2022-12-18T09:53:55;38.05;;;17.27;;
37459;SDS011;23318;50.966;5.284;2022-12-18T09:56:31;35.88;;;18.25;;
37459;SDS011;23318;50.966;5.284;2022-12-18T09:59:02;36.35;;;17.58;;
37459;SDS011;23318;50.966;5.284;2022-12-18T10:01:29;33.67;;;17.23;;
37459;SDS011;23318;50.966;5.284;2022-12-18T10:03:56;39.92;;;20.50;;
37459;SDS011;23318;50.966;5.284;2022-12-18T10:06:35;43.25;;;19.27;;
37459;SDS011;23318;50.966;5.284;2022-12-18T10:14:23;37.72;;;19.20;;
37459;SDS011;23318;50.966;5.284;2022-12-18T10:20:30;35.60;;;18.45;;
37459;SDS011;23318;50.966;5.284;2022-12-18T10:25:57;37.10;;;18.70;;
37459;SDS011;23318;50.966;5.284;2022-12-18T10:28:25;41.17;;;19.25;;
37459;SDS011;23318;50.966;5.284;2022-12-18T10:30:54;39.78;;;20.35;;
37459;SDS011;23318;50.966;5.284;2022-12-18T10:33:21;37.80;;;19.63;;
37459;SDS011;23318;50.966;5.284;2022-12-18T10:35:49;42.58;;;19.92;;
37459;SDS011;23318;50.966;5.284;2022-12-18T10:43:23;32.97;;;18.58;;
37459;SDS011;23318;50.966;5.284;2022-12-18T10:51:07;41.03;;;18.02;;
37459;SDS011;23318;50.966;5.284;2022-12-18T10:53:33;37.35;;;19.17;;
37459;SDS011;23318;50.966;5.284;2022-12-18T10:56:02;36.47;;;18.65;;
37459;SDS011;23318;50.966;5.284;2022-12-18T10:58:31;36.78;;;19.42;;
37459;SDS011;23318;50.966;5.284;2022-12-18T11:03:41;38.30;;;18.98;;
37459;SDS011;23318;50.966;5.284;2022-12-18T11:06:10;35.70;;;18.58;;
37459;SDS011;23318;50.966;5.284;2022-12-18T11:08:40;35.35;;;18.27;;
37459;SDS011;23318;50.966;5.284;2022-12-18T11:11:15;37.13;;;19.05;;
37459;SDS011;23318;50.966;5.284;2022-12-18T11:13:51;35.03;;;18.60;;
37459;SDS011;23318;50.966;5.284;2022-12-18T11:16:45;36.28;;;18.95;;
37459;SDS011;23318;50.966;5.284;2022-12-18T11:22:00;32.28;;;17.77;;
37459;SDS011;23318;50.966;5.284;2022-12-18T11:24:29;30.02;;;16.40;;
37459;SDS011;23318;50.966;5.284;2022-12-18T11:27:00;34.58;;;17.55;;
37459;SDS011;23318;50.966;5.284;2022-12-18T11:29:38;33.63;;;17.08;;
37459;SDS011;23318;50.966;5.284;2022-12-18T11:32:47;35.33;;;18.30;;
37459;SDS011;23318;50.966;5.284;2022-12-18T11:35:03;34.92;;;17.73;;
37459;SDS011;23318;50.966;5.284;2022-12-18T11:37:52;32.28;;;17.35;;
37459;SDS011;23318;50.966;5.284;2022-12-18T11:40:26;38.60;;;18.30;;
37459;SDS011;23318;50.966;5.284;2022-12-18T11:46:13;36.00;;;18.85;;
37459;SDS011;23318;50.966;5.284;2022-12-18T11:48:42;33.72;;;17.52;;
37459;SDS011;23318;50.966;5.284;2022-12-18T11:51:14;32.33;;;17.70;;
37459;SDS011;23318;50.966;5.284;2022-12-18T11:53:48;57.42;;;28.08;;
37459;SDS011;23318;50.966;5.284;2022-12-18T11:56:30;50.78;;;26.92;;
37459;SDS011;23318;50.966;5.284;2022-12-18T11:59:12;40.22;;;22.25;;
37459;SDS011;23318;50.966;5.284;2022-12-18T12:04:55;34.95;;;18.90;;
37459;SDS011;23318;50.966;5.284;2022-12-18T12:07:55;45.53;;;25.33;;
37459;SDS011;23318;50.966;5.284;2022-12-18T12:29:21;33.63;;;20.80;;
37459;SDS011;23318;50.966;5.284;2022-12-18T12:35:22;35.45;;;19.55;;
37459;SDS011;23318;50.966;5.284;2022-12-18T12:40:29;37.08;;;20.35;;
37459;SDS011;23318;50.966;5.284;2022-12-18T12:43:00;35.47;;;18.75;;
37459;SDS011;23318;50.966;5.284;2022-12-18T12:48:09;39.63;;;20.70;;
37459;SDS011;23318;50.966;5.284;2022-12-18T12:50:41;38.20;;;19.77;;
37459;SDS011;23318;50.966;5.284;2022-12-18T12:53:07;37.50;;;19.52;;
37459;SDS011;23318;50.966;5.284;2022-12-18T12:55:40;34.28;;;18.63;;
37459;SDS011;23318;50.966;5.284;2022-12-18T12:58:23;36.83;;;19.65;;
37459;SDS011;23318;50.966;5.284;2022-12-18T13:01:02;34.75;;;19.05;;
37459;SDS011;23318;50.966;5.284;2022-12-18T13:03:41;38.95;;;18.88;;
37459;SDS011;23318;50.966;5.284;2022-12-18T13:06:19;33.30;;;18.73;;
37459;SDS011;23318;50.966;5.284;2022-12-18T13:09:08;34.35;;;18.23;;
37459;SDS011;23318;50.966;5.284;2022-12-18T13:11:35;33.33;;;18.35;;
37459;SDS011;23318;50.966;5.284;2022-12-18T13:14:24;37.55;;;19.27;;
37459;SDS011;23318;50.966;5.284;2022-12-18T13:19:52;37.35;;;19.13;;
37459;SDS011;23318;50.966;5.284;2022-12-18T13:22:39;32.35;;;17.95;;
37459;SDS011;23318;50.966;5.284;2022-12-18T13:25:27;33.03;;;18.33;;
37459;SDS011;23318;50.966;5.284;2022-12-18T13:41:00;34.47;;;18.25;;
37459;SDS011;23318;50.966;5.284;2022-12-18T13:48:28;35.47;;;19.27;;
37459;SDS011;23318;50.966;5.284;2022-12-18T13:51:01;32.03;;;18.23;;
37459;SDS011;23318;50.966;5.284;2022-12-18T13:56:25;33.00;;;18.27;;
37459;SDS011;23318;50.966;5.284;2022-12-18T13:59:05;38.10;;;19.58;;
37459;SDS011;23318;50.966;5.284;2022-12-18T14:01:42;33.72;;;19.13;;
37459;SDS011;23318;50.966;5.284;2022-12-18T14:04:20;38.90;;;20.48;;
37459;SDS011;23318;50.966;5.284;2022-12-18T14:06:46;39.08;;;21.02;;
37459;SDS011;23318;50.966;5.284;2022-12-18T14:09:15;39.60;;;19.98;;
37459;SDS011;23318;50.966;5.284;2022-12-18T14:11:47;36.35;;;20.38;;
37459;SDS011;23318;50.966;5.284;2022-12-18T14:14:15;38.53;;;21.42;;
37459;SDS011;23318;50.966;5.284;2022-12-18T14:16:42;45.80;;;21.38;;
37459;SDS011;23318;50.966;5.284;2022-12-18T14:19:15;43.00;;;22.42;;
37459;SDS011;23318;50.966;5.284;2022-12-18T14:21:46;49.20;;;22.48;;
37459;SDS011;23318;50.966;5.284;2022-12-18T14:24:16;43.85;;;24.25;;
37459;SDS011;23318;50.966;5.284;2022-12-18T14:26:44;49.08;;;25.20;;
37459;SDS011;23318;50.966;5.284;2022-12-18T14:29:23;45.20;;;24.25;;
37459;SDS011;23318;50.966;5.284;2022-12-18T14:34:52;43.83;;;23.38;;
37459;SDS011;23318;50.966;5.284;2022-12-18T14:37:23;47.20;;;24.77;;
37459;SDS011;23318;50.966;5.284;2022-12-18T14:40:00;45.90;;;22.63;;
37459;SDS011;23318;50.966;5.284;2022-12-18T14:42:27;42.55;;;23.83;;
37459;SDS011;23318;50.966;5.284;2022-12-18T14:47:58;44.40;;;23.38;;
37459;SDS011;23318;50.966;5.284;2022-12-18T14:50:24;43.65;;;22.67;;
37459;SDS011;23318;50.966;5.284;2022-12-18T14:52:51;41.50;;;22.17;;
37459;SDS011;23318;50.966;5.284;2022-12-18T14:55:17;41.95;;;22.27;;
37459;SDS011;23318;50.966;5.284;2022-12-18T14:57:45;40.22;;;21.38;;
37459;SDS011;23318;50.966;5.284;2022-12-18T15:00:15;36.55;;;19.67;;
37459;SDS011;23318;50.966;5.284;2022-12-18T15:02:43;40.60;;;21.58;;
37459;SDS011;23318;50.966;5.284;2022-12-18T15:10:14;37.80;;;20.20;;
37459;SDS011;23318;50.966;5.284;2022-12-18T15:12:44;35.33;;;18.88;;
37459;SDS011;23318;50.966;5.284;2022-12-18T15:18:00;32.22;;;18.15;;
37459;SDS011;23318;50.966;5.284;2022-12-18T15:23:26;33.15;;;15.05;;
37459;SDS011;23318;50.966;5.284;2022-12-18T15:26:05;30.35;;;16.30;;
37459;SDS011;23318;50.966;5.284;2022-12-18T15:28:34;28.92;;;16.15;;
37459;SDS011;23318;50.966;5.284;2022-12-18T15:31:05;34.95;;;17.05;;
37459;SDS011;23318;50.966;5.284;2022-12-18T15:33:38;31.60;;;16.35;;
37459;SDS011;23318;50.966;5.284;2022-12-18T15:36:07;30.60;;;15.70;;
37459;SDS011;23318;50.966;5.284;2022-12-18T15:38:34;29.63;;;15.75;;
37459;SDS011;23318;50.966;5.284;2022-12-18T15:41:00;31.80;;;15.98;;
37459;SDS011;23318;50.966;5.284;2022-12-18T15:43:27;33.75;;;16.50;;
37459;SDS011;23318;50.966;5.284;2022-12-18T15:46:06;31.38;;;14.52;;
37459;SDS011;23318;50.966;5.284;2022-12-18T15:48:40;30.35;;;15.57;;
37459;SDS011;23318;50.966;5.284;2022-12-18T15:51:10;33.13;;;15.90;;
37459;SDS011;23318;50.966;5.284;2022-12-18T15:53:42;30.10;;;16.08;;
37459;SDS011;23318;50.966;5.284;2022-12-18T15:56:12;26.08;;;14.20;;
37459;SDS011;23318;50.966;5.284;2022-12-18T15:58:57;28.63;;;14.75;;
37459;SDS011;23318;50.966;5.284;2022-12-18T16:01:23;31.90;;;16.75;;
37459;SDS011;23318;50.966;5.284;2022-12-18T16:03:51;29.38;;;17.73;;
37459;SDS011;23318;50.966;5.284;2022-12-18T16:06:16;29.73;;;15.82;;
37459;SDS011;23318;50.966;5.284;2022-12-18T16:08:42;29.17;;;16.00;;
37459;SDS011;23318;50.966;5.284;2022-12-18T16:11:14;32.60;;;19.55;;
37459;SDS011;23318;50.966;5.284;2022-12-18T16:14:03;30.05;;;16.50;;
37459;SDS011;23318;50.966;5.284;2022-12-18T16:16:46;28.77;;;15.98;;
37459;SDS011;23318;50.966;5.284;2022-12-18T16:19:13;29.40;;;16.42;;
37459;SDS011;23318;50.966;5.284;2022-12-18T16:21:40;26.88;;;15.00;;
37459;SDS011;23318;50.966;5.284;2022-12-18T16:24:07;32.38;;;16.98;;
37459;SDS011;23318;50.966;5.284;2022-12-18T16:26:47;43.17;;;21.90;;
37459;SDS011;23318;50.966;5.284;2022-12-18T16:29:13;35.03;;;19.65;;
37459;SDS011;23318;50.966;5.284;2022-12-18T16:31:39;39.22;;;19.30;;
37459;SDS011;23318;50.966;5.284;2022-12-18T16:36:43;32.17;;;15.65;;
37459;SDS011;23318;50.966;5.284;2022-12-18T16:39:09;45.30;;;22.73;;
37459;SDS011;23318;50.966;5.284;2022-12-18T16:41:34;29.42;;;17.42;;
37459;SDS011;23318;50.966;5.284;2022-12-18T16:44:00;34.30;;;18.52;;
37459;SDS011;23318;50.966;5.284;2022-12-18T16:46:26;31.95;;;17.40;;